sensor_id;sensor_type;location;lat;lon;timestamp;P1;durP1;ratioP1;P2;durP2;ratioP2
56991;SDS011;42885;49.754;18.636;2023-02-13T00:02:28;108.27;;;56.33;;
56991;SDS011;42885;49.754;18.636;2023-02-13T00:04:59;97.70;;;52.65;;
56991;SDS011;42885;49.754;18.636;2023-02-13T00:07:30;107.37;;;54.57;;
56991;SDS011;42885;49.754;18.636;2023-02-13T00:10:00;105.12;;;54.80;;
56991;SDS011;42885;49.754;18.636;2023-02-13T00:12:32;131.17;;;64.10;;
56991;SDS011;42885;49.754;18.636;2023-02-13T00:15:04;142.80;;;71.62;;
56991;SDS011;42885;49.754;18.636;2023-02-13T00:17:35;128.95;;;63.38;;
56991;SDS011;42885;49.754;18.636;2023-02-13T00:20:06;85.80;;;46.45;;
56991;SDS011;42885;49.754;18.636;2023-02-13T00:22:39;126.65;;;67.70;;
56991;SDS011;42885;49.754;18.636;2023-02-13T00:25:10;79.47;;;41.95;;
56991;SDS011;42885;49.754;18.636;2023-02-13T00:27:42;76.87;;;41.57;;
56991;SDS011;42885;49.754;18.636;2023-02-13T00:30:13;79.20;;;42.98;;
56991;SDS011;42885;49.754;18.636;2023-02-13T00:32:44;88.45;;;43.85;;
56991;SDS011;42885;49.754;18.636;2023-02-13T00:35:15;80.87;;;44.23;;
56991;SDS011;42885;49.754;18.636;2023-02-13T00:37:46;82.62;;;43.52;;
56991;SDS011;42885;49.754;18.636;2023-02-13T00:40:17;88.12;;;46.50;;
56991;SDS011;42885;49.754;18.636;2023-02-13T00:42:48;88.82;;;45.67;;
56991;SDS011;42885;49.754;18.636;2023-02-13T00:45:19;79.25;;;41.95;;
56991;SDS011;42885;49.754;18.636;2023-02-13T00:47:51;75.30;;;41.77;;
56991;SDS011;42885;49.754;18.636;2023-02-13T00:50:22;82.40;;;43.38;;
56991;SDS011;42885;49.754;18.636;2023-02-13T00:52:53;80.03;;;42.38;;
56991;SDS011;42885;49.754;18.636;2023-02-13T00:55:23;71.30;;;38.17;;
56991;SDS011;42885;49.754;18.636;2023-02-13T00:57:54;71.25;;;34.88;;
56991;SDS011;42885;49.754;18.636;2023-02-13T01:00:26;64.67;;;37.93;;
56991;SDS011;42885;49.754;18.636;2023-02-13T01:02:57;71.47;;;37.08;;
56991;SDS011;42885;49.754;18.636;2023-02-13T01:05:28;69.05;;;36.48;;
56991;SDS011;42885;49.754;18.636;2023-02-13T01:07:59;66.30;;;35.43;;
56991;SDS011;42885;49.754;18.636;2023-02-13T01:10:30;67.67;;;36.98;;
56991;SDS011;42885;49.754;18.636;2023-02-13T01:13:01;89.77;;;48.68;;
56991;SDS011;42885;49.754;18.636;2023-02-13T01:15:32;91.05;;;50.23;;
56991;SDS011;42885;49.754;18.636;2023-02-13T01:18:04;92.55;;;49.80;;
56991;SDS011;42885;49.754;18.636;2023-02-13T01:20:35;95.38;;;49.53;;
56991;SDS011;42885;49.754;18.636;2023-02-13T01:23:06;77.45;;;40.23;;
56991;SDS011;42885;49.754;18.636;2023-02-13T01:25:41;59.67;;;31.25;;
56991;SDS011;42885;49.754;18.636;2023-02-13T01:28:12;55.78;;;30.48;;
56991;SDS011;42885;49.754;18.636;2023-02-13T01:30:44;73.02;;;38.17;;
56991;SDS011;42885;49.754;18.636;2023-02-13T01:33:16;95.10;;;48.58;;
56991;SDS011;42885;49.754;18.636;2023-02-13T01:35:48;65.28;;;35.23;;
56991;SDS011;42885;49.754;18.636;2023-02-13T01:38:19;66.45;;;32.73;;
56991;SDS011;42885;49.754;18.636;2023-02-13T01:40:51;59.25;;;30.72;;
56991;SDS011;42885;49.754;18.636;2023-02-13T01:43:41;57.78;;;30.75;;
56991;SDS011;42885;49.754;18.636;2023-02-13T01:45:58;58.98;;;30.45;;
56991;SDS011;42885;49.754;18.636;2023-02-13T01:48:31;60.57;;;29.60;;
56991;SDS011;42885;49.754;18.636;2023-02-13T01:51:03;57.88;;;29.02;;
56991;SDS011;42885;49.754;18.636;2023-02-13T01:53:40;56.63;;;29.30;;
56991;SDS011;42885;49.754;18.636;2023-02-13T01:58:57;55.58;;;28.80;;
56991;SDS011;42885;49.754;18.636;2023-02-13T02:01:29;59.85;;;28.83;;
56991;SDS011;42885;49.754;18.636;2023-02-13T02:04:12;57.90;;;28.02;;
56991;SDS011;42885;49.754;18.636;2023-02-13T02:06:43;52.30;;;27.75;;
56991;SDS011;42885;49.754;18.636;2023-02-13T02:09:20;50.28;;;26.00;;
56991;SDS011;42885;49.754;18.636;2023-02-13T02:15:03;40.08;;;25.08;;
56991;SDS011;42885;49.754;18.636;2023-02-13T02:17:35;44.20;;;24.37;;
56991;SDS011;42885;49.754;18.636;2023-02-13T02:25:38;51.30;;;24.70;;
56991;SDS011;42885;49.754;18.636;2023-02-13T02:28:25;42.27;;;24.45;;
56991;SDS011;42885;49.754;18.636;2023-02-13T02:34:02;51.70;;;26.42;;
56991;SDS011;42885;49.754;18.636;2023-02-13T02:39:29;48.17;;;24.98;;
56991;SDS011;42885;49.754;18.636;2023-02-13T02:42:08;50.73;;;24.20;;
56991;SDS011;42885;49.754;18.636;2023-02-13T02:45:04;46.05;;;23.87;;
56991;SDS011;42885;49.754;18.636;2023-02-13T02:50:52;44.40;;;23.27;;
56991;SDS011;42885;49.754;18.636;2023-02-13T02:56:15;41.15;;;20.97;;
56991;SDS011;42885;49.754;18.636;2023-02-13T02:59:09;37.48;;;18.92;;
56991;SDS011;42885;49.754;18.636;2023-02-13T03:01:56;40.58;;;21.00;;
56991;SDS011;42885;49.754;18.636;2023-02-13T03:04:47;37.53;;;19.73;;
56991;SDS011;42885;49.754;18.636;2023-02-13T03:07:41;40.15;;;20.57;;
56991;SDS011;42885;49.754;18.636;2023-02-13T03:10:16;34.78;;;19.55;;
56991;SDS011;42885;49.754;18.636;2023-02-13T03:13:10;40.95;;;20.40;;
56991;SDS011;42885;49.754;18.636;2023-02-13T03:15:50;38.28;;;20.23;;
56991;SDS011;42885;49.754;18.636;2023-02-13T03:18:42;38.65;;;20.65;;
56991;SDS011;42885;49.754;18.636;2023-02-13T03:24:44;46.42;;;21.57;;
56991;SDS011;42885;49.754;18.636;2023-02-13T03:30:26;50.50;;;23.62;;
56991;SDS011;42885;49.754;18.636;2023-02-13T03:33:04;47.20;;;23.65;;
56991;SDS011;42885;49.754;18.636;2023-02-13T03:35:55;45.55;;;23.32;;
56991;SDS011;42885;49.754;18.636;2023-02-13T03:38:49;46.75;;;22.75;;
56991;SDS011;42885;49.754;18.636;2023-02-13T03:41:35;49.65;;;23.25;;
56991;SDS011;42885;49.754;18.636;2023-02-13T03:46:44;49.38;;;22.58;;
56991;SDS011;42885;49.754;18.636;2023-02-13T03:49:18;44.55;;;23.42;;
56991;SDS011;42885;49.754;18.636;2023-02-13T03:52:12;47.08;;;23.57;;
56991;SDS011;42885;49.754;18.636;2023-02-13T03:54:47;46.05;;;22.52;;
56991;SDS011;42885;49.754;18.636;2023-02-13T03:57:46;41.03;;;21.73;;
56991;SDS011;42885;49.754;18.636;2023-02-13T04:00:45;38.23;;;21.40;;
56991;SDS011;42885;49.754;18.636;2023-02-13T04:06:22;41.46;;;21.34;;
56991;SDS011;42885;49.754;18.636;2023-02-13T04:08:52;45.67;;;21.65;;
56991;SDS011;42885;49.754;18.636;2023-02-13T04:11:32;42.77;;;21.10;;
56991;SDS011;42885;49.754;18.636;2023-02-13T04:14:13;49.42;;;22.75;;
56991;SDS011;42885;49.754;18.636;2023-02-13T04:16:46;42.95;;;23.32;;
56991;SDS011;42885;49.754;18.636;2023-02-13T04:19:18;44.70;;;22.22;;
56991;SDS011;42885;49.754;18.636;2023-02-13T04:21:54;43.25;;;22.25;;
56991;SDS011;42885;49.754;18.636;2023-02-13T04:24:30;42.97;;;22.23;;
56991;SDS011;42885;49.754;18.636;2023-02-13T04:27:01;45.43;;;23.25;;
56991;SDS011;42885;49.754;18.636;2023-02-13T04:32:04;46.33;;;22.10;;
56991;SDS011;42885;49.754;18.636;2023-02-13T04:34:36;44.23;;;22.93;;
56991;SDS011;42885;49.754;18.636;2023-02-13T04:37:07;47.23;;;23.65;;
56991;SDS011;42885;49.754;18.636;2023-02-13T04:39:38;44.23;;;22.60;;
56991;SDS011;42885;49.754;18.636;2023-02-13T04:42:09;40.78;;;22.80;;
56991;SDS011;42885;49.754;18.636;2023-02-13T04:44:40;50.67;;;24.30;;
56991;SDS011;42885;49.754;18.636;2023-02-13T04:47:11;48.55;;;25.32;;
56991;SDS011;42885;49.754;18.636;2023-02-13T04:49:43;46.53;;;24.25;;
56991;SDS011;42885;49.754;18.636;2023-02-13T04:52:14;42.30;;;22.00;;
56991;SDS011;42885;49.754;18.636;2023-02-13T04:54:46;43.13;;;23.35;;
56991;SDS011;42885;49.754;18.636;2023-02-13T04:57:17;48.38;;;22.32;;
56991;SDS011;42885;49.754;18.636;2023-02-13T04:59:48;45.78;;;23.32;;
56991;SDS011;42885;49.754;18.636;2023-02-13T05:02:18;50.05;;;23.77;;
56991;SDS011;42885;49.754;18.636;2023-02-13T05:04:49;44.25;;;24.70;;
56991;SDS011;42885;49.754;18.636;2023-02-13T05:07:20;47.53;;;25.12;;
56991;SDS011;42885;49.754;18.636;2023-02-13T05:09:51;49.15;;;25.20;;
56991;SDS011;42885;49.754;18.636;2023-02-13T05:12:22;46.40;;;25.10;;
56991;SDS011;42885;49.754;18.636;2023-02-13T05:14:53;55.05;;;26.70;;
56991;SDS011;42885;49.754;18.636;2023-02-13T05:17:24;53.73;;;27.05;;
56991;SDS011;42885;49.754;18.636;2023-02-13T05:19:55;65.17;;;29.23;;
56991;SDS011;42885;49.754;18.636;2023-02-13T05:22:27;68.30;;;29.63;;
56991;SDS011;42885;49.754;18.636;2023-02-13T05:25:16;84.03;;;32.20;;
56991;SDS011;42885;49.754;18.636;2023-02-13T05:27:47;83.37;;;31.93;;
56991;SDS011;42885;49.754;18.636;2023-02-13T05:30:18;79.10;;;31.15;;
56991;SDS011;42885;49.754;18.636;2023-02-13T05:32:49;64.87;;;26.62;;
56991;SDS011;42885;49.754;18.636;2023-02-13T05:35:20;58.00;;;26.77;;
56991;SDS011;42885;49.754;18.636;2023-02-13T05:37:52;70.20;;;29.75;;
56991;SDS011;42885;49.754;18.636;2023-02-13T05:40:23;61.20;;;26.75;;
56991;SDS011;42885;49.754;18.636;2023-02-13T05:42:55;56.63;;;27.70;;
56991;SDS011;42885;49.754;18.636;2023-02-13T05:45:26;59.60;;;27.93;;
56991;SDS011;42885;49.754;18.636;2023-02-13T05:47:57;59.90;;;28.35;;
56991;SDS011;42885;49.754;18.636;2023-02-13T05:50:28;59.42;;;28.25;;
56991;SDS011;42885;49.754;18.636;2023-02-13T05:52:59;69.65;;;29.10;;
56991;SDS011;42885;49.754;18.636;2023-02-13T05:55:31;57.78;;;26.97;;
56991;SDS011;42885;49.754;18.636;2023-02-13T05:58:03;48.52;;;24.40;;
56991;SDS011;42885;49.754;18.636;2023-02-13T06:00:34;83.97;;;45.13;;
56991;SDS011;42885;49.754;18.636;2023-02-13T06:03:05;49.85;;;24.85;;
56991;SDS011;42885;49.754;18.636;2023-02-13T06:05:36;54.35;;;26.68;;
56991;SDS011;42885;49.754;18.636;2023-02-13T06:08:07;56.25;;;26.55;;
56991;SDS011;42885;49.754;18.636;2023-02-13T06:10:38;43.63;;;22.55;;
56991;SDS011;42885;49.754;18.636;2023-02-13T06:13:09;40.50;;;20.65;;
56991;SDS011;42885;49.754;18.636;2023-02-13T06:15:40;35.15;;;19.75;;
56991;SDS011;42885;49.754;18.636;2023-02-13T06:18:11;43.05;;;22.55;;
56991;SDS011;42885;49.754;18.636;2023-02-13T06:20:42;39.85;;;21.35;;
56991;SDS011;42885;49.754;18.636;2023-02-13T06:23:13;47.38;;;21.90;;
56991;SDS011;42885;49.754;18.636;2023-02-13T06:25:45;51.50;;;23.00;;
56991;SDS011;42885;49.754;18.636;2023-02-13T06:28:16;42.55;;;20.37;;
56991;SDS011;42885;49.754;18.636;2023-02-13T06:30:47;40.83;;;20.77;;
56991;SDS011;42885;49.754;18.636;2023-02-13T06:33:18;36.68;;;20.10;;
56991;SDS011;42885;49.754;18.636;2023-02-13T06:35:49;37.48;;;20.23;;
56991;SDS011;42885;49.754;18.636;2023-02-13T06:38:20;40.45;;;21.37;;
56991;SDS011;42885;49.754;18.636;2023-02-13T06:40:52;46.48;;;26.60;;
56991;SDS011;42885;49.754;18.636;2023-02-13T06:43:24;50.40;;;27.05;;
56991;SDS011;42885;49.754;18.636;2023-02-13T06:45:55;45.55;;;24.43;;
56991;SDS011;42885;49.754;18.636;2023-02-13T06:48:26;44.53;;;24.73;;
56991;SDS011;42885;49.754;18.636;2023-02-13T06:50:57;45.67;;;26.25;;
56991;SDS011;42885;49.754;18.636;2023-02-13T06:53:30;46.45;;;25.35;;
56991;SDS011;42885;49.754;18.636;2023-02-13T06:56:02;46.77;;;26.27;;
56991;SDS011;42885;49.754;18.636;2023-02-13T06:58:36;48.60;;;26.45;;
56991;SDS011;42885;49.754;18.636;2023-02-13T07:01:07;48.23;;;26.70;;
56991;SDS011;42885;49.754;18.636;2023-02-13T07:03:38;32.53;;;17.10;;
56991;SDS011;42885;49.754;18.636;2023-02-13T07:06:09;46.35;;;27.77;;
56991;SDS011;42885;49.754;18.636;2023-02-13T07:08:42;35.55;;;20.88;;
56991;SDS011;42885;49.754;18.636;2023-02-13T07:11:16;35.17;;;19.92;;
56991;SDS011;42885;49.754;18.636;2023-02-13T07:13:48;41.73;;;21.02;;
56991;SDS011;42885;49.754;18.636;2023-02-13T07:16:19;32.70;;;17.70;;
56991;SDS011;42885;49.754;18.636;2023-02-13T07:18:50;33.92;;;16.90;;
56991;SDS011;42885;49.754;18.636;2023-02-13T07:21:21;71.50;;;36.63;;
56991;SDS011;42885;49.754;18.636;2023-02-13T07:23:52;88.35;;;45.35;;
56991;SDS011;42885;49.754;18.636;2023-02-13T07:26:23;77.80;;;42.25;;
56991;SDS011;42885;49.754;18.636;2023-02-13T07:28:54;58.20;;;34.23;;
56991;SDS011;42885;49.754;18.636;2023-02-13T07:31:25;50.25;;;29.92;;
56991;SDS011;42885;49.754;18.636;2023-02-13T07:33:56;58.50;;;32.93;;
56991;SDS011;42885;49.754;18.636;2023-02-13T07:36:27;69.12;;;41.45;;
56991;SDS011;42885;49.754;18.636;2023-02-13T07:38:58;87.05;;;49.63;;
56991;SDS011;42885;49.754;18.636;2023-02-13T07:41:29;87.57;;;55.80;;
56991;SDS011;42885;49.754;18.636;2023-02-13T07:44:00;86.90;;;55.88;;
56991;SDS011;42885;49.754;18.636;2023-02-13T07:46:31;76.70;;;46.27;;
56991;SDS011;42885;49.754;18.636;2023-02-13T07:49:02;66.70;;;40.10;;
56991;SDS011;42885;49.754;18.636;2023-02-13T07:51:33;58.87;;;33.07;;
56991;SDS011;42885;49.754;18.636;2023-02-13T07:54:04;42.33;;;23.57;;
56991;SDS011;42885;49.754;18.636;2023-02-13T07:56:35;48.75;;;27.80;;
56991;SDS011;42885;49.754;18.636;2023-02-13T07:59:06;26.37;;;16.65;;
56991;SDS011;42885;49.754;18.636;2023-02-13T08:01:37;34.08;;;17.12;;
56991;SDS011;42885;49.754;18.636;2023-02-13T08:04:08;24.23;;;12.67;;
56991;SDS011;42885;49.754;18.636;2023-02-13T08:06:39;19.83;;;10.50;;
56991;SDS011;42885;49.754;18.636;2023-02-13T08:09:16;17.82;;;10.35;;
56991;SDS011;42885;49.754;18.636;2023-02-13T08:12:03;17.52;;;8.98;;
56991;SDS011;42885;49.754;18.636;2023-02-13T08:14:36;21.33;;;11.75;;
56991;SDS011;42885;49.754;18.636;2023-02-13T08:17:08;17.10;;;10.23;;
56991;SDS011;42885;49.754;18.636;2023-02-13T08:19:39;23.62;;;10.08;;
56991;SDS011;42885;49.754;18.636;2023-02-13T08:22:10;17.05;;;8.40;;
56991;SDS011;42885;49.754;18.636;2023-02-13T08:24:41;13.23;;;7.50;;
56991;SDS011;42885;49.754;18.636;2023-02-13T08:27:12;12.90;;;7.12;;
56991;SDS011;42885;49.754;18.636;2023-02-13T08:29:44;13.60;;;7.05;;
56991;SDS011;42885;49.754;18.636;2023-02-13T08:32:16;16.70;;;6.85;;
56991;SDS011;42885;49.754;18.636;2023-02-13T08:34:47;9.95;;;5.08;;
56991;SDS011;42885;49.754;18.636;2023-02-13T08:37:17;9.48;;;5.03;;
56991;SDS011;42885;49.754;18.636;2023-02-13T08:39:49;11.93;;;5.50;;
56991;SDS011;42885;49.754;18.636;2023-02-13T08:42:20;6.62;;;4.45;;
56991;SDS011;42885;49.754;18.636;2023-02-13T08:44:50;10.35;;;5.75;;
56991;SDS011;42885;49.754;18.636;2023-02-13T08:47:21;10.75;;;4.97;;
56991;SDS011;42885;49.754;18.636;2023-02-13T08:49:52;10.55;;;5.60;;
56991;SDS011;42885;49.754;18.636;2023-02-13T08:52:23;16.02;;;8.00;;
56991;SDS011;42885;49.754;18.636;2023-02-13T08:54:54;10.75;;;5.80;;
56991;SDS011;42885;49.754;18.636;2023-02-13T08:57:26;9.47;;;5.40;;
56991;SDS011;42885;49.754;18.636;2023-02-13T08:59:56;9.93;;;4.67;;
56991;SDS011;42885;49.754;18.636;2023-02-13T09:02:28;8.43;;;4.70;;
56991;SDS011;42885;49.754;18.636;2023-02-13T09:04:59;11.00;;;4.60;;
56991;SDS011;42885;49.754;18.636;2023-02-13T09:07:30;9.55;;;5.28;;
56991;SDS011;42885;49.754;18.636;2023-02-13T09:10:01;11.88;;;5.45;;
56991;SDS011;42885;49.754;18.636;2023-02-13T09:12:32;9.10;;;5.07;;
56991;SDS011;42885;49.754;18.636;2023-02-13T09:15:03;8.88;;;5.47;;
56991;SDS011;42885;49.754;18.636;2023-02-13T09:17:35;10.25;;;5.05;;
56991;SDS011;42885;49.754;18.636;2023-02-13T09:20:06;11.63;;;5.17;;
56991;SDS011;42885;49.754;18.636;2023-02-13T09:22:37;7.20;;;3.87;;
56991;SDS011;42885;49.754;18.636;2023-02-13T09:25:09;8.00;;;4.50;;
56991;SDS011;42885;49.754;18.636;2023-02-13T09:27:40;6.80;;;3.40;;
56991;SDS011;42885;49.754;18.636;2023-02-13T09:30:12;9.35;;;4.65;;
56991;SDS011;42885;49.754;18.636;2023-02-13T09:32:47;6.75;;;4.17;;
56991;SDS011;42885;49.754;18.636;2023-02-13T09:35:20;6.70;;;3.90;;
56991;SDS011;42885;49.754;18.636;2023-02-13T09:37:52;7.77;;;3.90;;
56991;SDS011;42885;49.754;18.636;2023-02-13T09:40:27;7.53;;;4.37;;
56991;SDS011;42885;49.754;18.636;2023-02-13T09:43:10;7.55;;;4.50;;
56991;SDS011;42885;49.754;18.636;2023-02-13T09:45:44;9.10;;;3.67;;
56991;SDS011;42885;49.754;18.636;2023-02-13T09:48:23;9.43;;;4.05;;
56991;SDS011;42885;49.754;18.636;2023-02-13T09:50:51;10.55;;;4.70;;
56991;SDS011;42885;49.754;18.636;2023-02-13T09:53:23;7.22;;;3.65;;
56991;SDS011;42885;49.754;18.636;2023-02-13T09:56:03;8.08;;;3.92;;
56991;SDS011;42885;49.754;18.636;2023-02-13T09:58:38;8.25;;;3.90;;
56991;SDS011;42885;49.754;18.636;2023-02-13T10:01:26;6.85;;;4.30;;
56991;SDS011;42885;49.754;18.636;2023-02-13T10:06:39;10.55;;;4.03;;
56991;SDS011;42885;49.754;18.636;2023-02-13T10:09:43;6.43;;;3.47;;
56991;SDS011;42885;49.754;18.636;2023-02-13T10:12:21;5.72;;;3.45;;
56991;SDS011;42885;49.754;18.636;2023-02-13T10:17:44;6.62;;;2.35;;
56991;SDS011;42885;49.754;18.636;2023-02-13T10:20:21;6.55;;;2.72;;
56991;SDS011;42885;49.754;18.636;2023-02-13T10:23:02;6.62;;;4.30;;
56991;SDS011;42885;49.754;18.636;2023-02-13T10:25:51;6.53;;;4.20;;
56991;SDS011;42885;49.754;18.636;2023-02-13T10:28:36;8.05;;;4.55;;
56991;SDS011;42885;49.754;18.636;2023-02-13T10:31:09;11.83;;;4.80;;
56991;SDS011;42885;49.754;18.636;2023-02-13T10:33:59;7.50;;;4.80;;
56991;SDS011;42885;49.754;18.636;2023-02-13T10:36:33;8.97;;;4.70;;
56991;SDS011;42885;49.754;18.636;2023-02-13T10:39:20;8.45;;;4.62;;
56991;SDS011;42885;49.754;18.636;2023-02-13T10:41:43;9.13;;;5.30;;
56991;SDS011;42885;49.754;18.636;2023-02-13T10:44:28;11.48;;;6.78;;
56991;SDS011;42885;49.754;18.636;2023-02-13T10:49:50;10.98;;;5.62;;
56991;SDS011;42885;49.754;18.636;2023-02-13T10:52:43;9.98;;;5.72;;
56991;SDS011;42885;49.754;18.636;2023-02-13T11:01:08;13.90;;;8.03;;
56991;SDS011;42885;49.754;18.636;2023-02-13T11:03:59;12.40;;;8.18;;
56991;SDS011;42885;49.754;18.636;2023-02-13T11:06:32;13.40;;;7.87;;
56991;SDS011;42885;49.754;18.636;2023-02-13T11:09:05;13.48;;;7.22;;
56991;SDS011;42885;49.754;18.636;2023-02-13T11:11:38;14.47;;;8.85;;
56991;SDS011;42885;49.754;18.636;2023-02-13T11:14:16;11.12;;;7.20;;
56991;SDS011;42885;49.754;18.636;2023-02-13T11:19:45;10.20;;;6.70;;
56991;SDS011;42885;49.754;18.636;2023-02-13T11:22:31;12.70;;;7.12;;
56991;SDS011;42885;49.754;18.636;2023-02-13T11:25:48;9.55;;;6.00;;
56991;SDS011;42885;49.754;18.636;2023-02-13T11:27:50;7.93;;;4.83;;
56991;SDS011;42885;49.754;18.636;2023-02-13T11:35:50;8.03;;;3.75;;
56991;SDS011;42885;49.754;18.636;2023-02-13T11:38:24;7.70;;;4.85;;
56991;SDS011;42885;49.754;18.636;2023-02-13T11:41:05;8.35;;;5.00;;
56991;SDS011;42885;49.754;18.636;2023-02-13T11:46:17;9.93;;;5.78;;
56991;SDS011;42885;49.754;18.636;2023-02-13T11:49:14;12.30;;;6.80;;
56991;SDS011;42885;49.754;18.636;2023-02-13T11:57:28;9.40;;;5.80;;
56991;SDS011;42885;49.754;18.636;2023-02-13T12:00:25;11.10;;;6.37;;
56991;SDS011;42885;49.754;18.636;2023-02-13T12:03:23;8.80;;;5.42;;
56991;SDS011;42885;49.754;18.636;2023-02-13T12:06:03;9.78;;;5.55;;
56991;SDS011;42885;49.754;18.636;2023-02-13T12:08:44;8.53;;;6.10;;
56991;SDS011;42885;49.754;18.636;2023-02-13T12:14:13;10.55;;;6.67;;
56991;SDS011;42885;49.754;18.636;2023-02-13T12:16:53;9.73;;;6.45;;
56991;SDS011;42885;49.754;18.636;2023-02-13T12:19:31;9.37;;;6.10;;
56991;SDS011;42885;49.754;18.636;2023-02-13T12:22:03;9.48;;;6.22;;
56991;SDS011;42885;49.754;18.636;2023-02-13T12:31:12;9.90;;;5.33;;
56991;SDS011;42885;49.754;18.636;2023-02-13T12:33:19;8.65;;;4.80;;
56991;SDS011;42885;49.754;18.636;2023-02-13T12:36:20;7.03;;;4.20;;
56991;SDS011;42885;49.754;18.636;2023-02-13T12:39:04;6.40;;;4.30;;
56991;SDS011;42885;49.754;18.636;2023-02-13T12:42:08;7.70;;;5.00;;
56991;SDS011;42885;49.754;18.636;2023-02-13T12:44:49;10.85;;;5.72;;
56991;SDS011;42885;49.754;18.636;2023-02-13T12:48:29;9.75;;;6.50;;
56991;SDS011;42885;49.754;18.636;2023-02-13T12:50:33;12.20;;;7.17;;
56991;SDS011;42885;49.754;18.636;2023-02-13T12:53:11;13.98;;;7.78;;
56991;SDS011;42885;49.754;18.636;2023-02-13T13:07:01;16.35;;;6.62;;
56991;SDS011;42885;49.754;18.636;2023-02-13T13:10:15;12.10;;;6.65;;
56991;SDS011;42885;49.754;18.636;2023-02-13T13:12:55;13.43;;;7.17;;
56991;SDS011;42885;49.754;18.636;2023-02-13T13:15:39;10.73;;;6.23;;
56991;SDS011;42885;49.754;18.636;2023-02-13T13:27:04;9.78;;;5.37;;
56991;SDS011;42885;49.754;18.636;2023-02-13T13:29:41;10.80;;;5.15;;
56991;SDS011;42885;49.754;18.636;2023-02-13T13:32:16;7.50;;;4.65;;
56991;SDS011;42885;49.754;18.636;2023-02-13T13:34:50;8.50;;;4.47;;
56991;SDS011;42885;49.754;18.636;2023-02-13T13:42:58;7.95;;;5.45;;
56991;SDS011;42885;49.754;18.636;2023-02-13T13:45:37;11.33;;;6.40;;
56991;SDS011;42885;49.754;18.636;2023-02-13T13:51:28;8.97;;;7.13;;
56991;SDS011;42885;49.754;18.636;2023-02-13T14:07:33;8.98;;;7.45;;
56991;SDS011;42885;49.754;18.636;2023-02-13T14:10:05;12.30;;;8.35;;
56991;SDS011;42885;49.754;18.636;2023-02-13T14:23:26;11.00;;;7.70;;
56991;SDS011;42885;49.754;18.636;2023-02-13T14:26:11;12.03;;;7.87;;
56991;SDS011;42885;49.754;18.636;2023-02-13T14:31:42;14.63;;;9.00;;
56991;SDS011;42885;49.754;18.636;2023-02-13T14:34:19;18.30;;;10.05;;
56991;SDS011;42885;49.754;18.636;2023-02-13T14:42:46;13.05;;;8.63;;
56991;SDS011;42885;49.754;18.636;2023-02-13T14:45:47;12.00;;;8.55;;
56991;SDS011;42885;49.754;18.636;2023-02-13T14:48:42;16.82;;;9.95;;
56991;SDS011;42885;49.754;18.636;2023-02-13T14:51:39;18.07;;;10.58;;
56991;SDS011;42885;49.754;18.636;2023-02-13T14:54:22;15.55;;;9.60;;
56991;SDS011;42885;49.754;18.636;2023-02-13T14:56:58;17.37;;;10.00;;
56991;SDS011;42885;49.754;18.636;2023-02-13T14:59:30;16.77;;;9.95;;
56991;SDS011;42885;49.754;18.636;2023-02-13T15:02:12;17.92;;;11.30;;
56991;SDS011;42885;49.754;18.636;2023-02-13T15:04:48;18.10;;;10.00;;
56991;SDS011;42885;49.754;18.636;2023-02-13T15:07:20;16.55;;;11.28;;
56991;SDS011;42885;49.754;18.636;2023-02-13T15:09:56;21.77;;;13.22;;
56991;SDS011;42885;49.754;18.636;2023-02-13T15:15:51;19.00;;;11.48;;
56991;SDS011;42885;49.754;18.636;2023-02-13T15:17:40;17.85;;;11.90;;
56991;SDS011;42885;49.754;18.636;2023-02-13T15:22:45;208.80;;;165.50;;
56991;SDS011;42885;49.754;18.636;2023-02-13T15:25:24;23.18;;;15.53;;
56991;SDS011;42885;49.754;18.636;2023-02-13T15:27:56;23.67;;;15.48;;
56991;SDS011;42885;49.754;18.636;2023-02-13T15:30:35;20.92;;;14.40;;
56991;SDS011;42885;49.754;18.636;2023-02-13T15:33:14;19.05;;;12.80;;
56991;SDS011;42885;49.754;18.636;2023-02-13T15:36:01;17.90;;;12.28;;
56991;SDS011;42885;49.754;18.636;2023-02-13T15:38:34;19.15;;;13.78;;
56991;SDS011;42885;49.754;18.636;2023-02-13T15:41:22;23.00;;;14.35;;
56991;SDS011;42885;49.754;18.636;2023-02-13T15:43:56;21.77;;;13.78;;
56991;SDS011;42885;49.754;18.636;2023-02-13T15:46:29;23.85;;;13.98;;
56991;SDS011;42885;49.754;18.636;2023-02-13T15:49:11;21.50;;;14.47;;
56991;SDS011;42885;49.754;18.636;2023-02-13T15:51:47;20.90;;;13.80;;
56991;SDS011;42885;49.754;18.636;2023-02-13T15:54:26;24.23;;;14.25;;
56991;SDS011;42885;49.754;18.636;2023-02-13T15:57:00;27.13;;;15.28;;
56991;SDS011;42885;49.754;18.636;2023-02-13T15:59:34;28.47;;;17.48;;
56991;SDS011;42885;49.754;18.636;2023-02-13T16:02:20;28.47;;;18.12;;
56991;SDS011;42885;49.754;18.636;2023-02-13T16:04:59;35.55;;;19.95;;
56991;SDS011;42885;49.754;18.636;2023-02-13T16:07:45;28.83;;;18.50;;
56991;SDS011;42885;49.754;18.636;2023-02-13T16:10:14;34.45;;;19.87;;
56991;SDS011;42885;49.754;18.636;2023-02-13T16:13:03;35.40;;;21.00;;
56991;SDS011;42885;49.754;18.636;2023-02-13T16:15:40;25.97;;;16.57;;
56991;SDS011;42885;49.754;18.636;2023-02-13T16:18:16;26.60;;;17.57;;
56991;SDS011;42885;49.754;18.636;2023-02-13T16:20:52;22.52;;;16.17;;
56991;SDS011;42885;49.754;18.636;2023-02-13T16:23:24;25.88;;;16.05;;
56991;SDS011;42885;49.754;18.636;2023-02-13T16:25:59;26.17;;;17.05;;
56991;SDS011;42885;49.754;18.636;2023-02-13T16:28:33;25.88;;;16.93;;
56991;SDS011;42885;49.754;18.636;2023-02-13T16:31:05;24.47;;;17.15;;
56991;SDS011;42885;49.754;18.636;2023-02-13T16:33:38;27.42;;;17.25;;
56991;SDS011;42885;49.754;18.636;2023-02-13T16:38:48;24.00;;;14.63;;
56991;SDS011;42885;49.754;18.636;2023-02-13T16:41:37;21.65;;;14.50;;
56991;SDS011;42885;49.754;18.636;2023-02-13T16:44:20;21.05;;;15.40;;
56991;SDS011;42885;49.754;18.636;2023-02-13T16:47:03;38.40;;;27.23;;
56991;SDS011;42885;49.754;18.636;2023-02-13T16:49:35;177.27;;;134.87;;
56991;SDS011;42885;49.754;18.636;2023-02-13T16:52:08;25.82;;;18.32;;
56991;SDS011;42885;49.754;18.636;2023-02-13T16:54:51;23.62;;;17.25;;
56991;SDS011;42885;49.754;18.636;2023-02-13T17:00:34;23.40;;;16.30;;
56991;SDS011;42885;49.754;18.636;2023-02-13T17:03:22;21.20;;;15.68;;
56991;SDS011;42885;49.754;18.636;2023-02-13T17:06:12;22.77;;;16.27;;
56991;SDS011;42885;49.754;18.636;2023-02-13T17:09:02;24.60;;;16.93;;
56991;SDS011;42885;49.754;18.636;2023-02-13T17:11:52;24.67;;;17.75;;
56991;SDS011;42885;49.754;18.636;2023-02-13T17:14:41;26.73;;;17.92;;
56991;SDS011;42885;49.754;18.636;2023-02-13T17:17:30;24.95;;;17.40;;
56991;SDS011;42885;49.754;18.636;2023-02-13T17:20:36;24.35;;;17.52;;
56991;SDS011;42885;49.754;18.636;2023-02-13T17:23:18;33.70;;;22.73;;
56991;SDS011;42885;49.754;18.636;2023-02-13T17:26:05;34.03;;;23.77;;
56991;SDS011;42885;49.754;18.636;2023-02-13T17:28:54;66.17;;;47.10;;
56991;SDS011;42885;49.754;18.636;2023-02-13T17:31:25;83.22;;;63.00;;
56991;SDS011;42885;49.754;18.636;2023-02-13T17:33:56;56.73;;;41.50;;
56991;SDS011;42885;49.754;18.636;2023-02-13T17:36:27;37.42;;;27.27;;